This is the latest recevied weather packets stored in our database for station/object WD4IXD. If no packets are shown the sender has not sent any weather packets the latest 1 day(s).
| Time | Temp. | Humidity | Pressure | Rain* | Wind** | Luminosity | Snow |
|---|---|---|---|---|---|---|---|
| 1778012104 | 4.44° C | 93% | 1014.3 hPa | 1.02 mm | 0.89 m/s, 112° | 77 W/m² | - |
| 1778011815 | 4.44° C | 94% | 1014.4 hPa | 1.27 mm | 0.89 m/s, 112° | 83 W/m² | - |
| 1778011503 | 4.44° C | 94% | 1014.4 hPa | 1.52 mm | 0 m/s | 127 W/m² | - |
| 1778011215 | 4.44° C | 94% | 1014.4 hPa | 1.52 mm | 0 m/s | 155 W/m² | - |
| 1778010904 | 3.89° C | 94% | 1014.4 hPa | 1.78 mm | 0.45 m/s, 112° | 193 W/m² | - |
| 1778010615 | 3.89° C | 94% | 1014.3 hPa | 2.03 mm | 0 m/s | 192 W/m² | - |
| 1778010304 | 3.89° C | 94% | 1014.3 hPa | 2.03 mm | 0.45 m/s, 111° | 204 W/m² | - |
| 1778010015 | 3.89° C | 94% | 1014.3 hPa | 2.29 mm | 0.89 m/s, 111° | 209 W/m² | - |
| 1778009704 | 3.89° C | 94% | 1014.3 hPa | 2.29 mm | 0 m/s | 169 W/m² | - |
| 1778009415 | 3.89° C | 94% | 1014.4 hPa | 2.03 mm | 0.89 m/s, 109° | 134 W/m² | - |
| 1778009104 | 3.89° C | 94% | 1014.4 hPa | 1.78 mm | 0.45 m/s, 107° | 135 W/m² | - |
| 1778008815 | 3.89° C | 94% | 1014.4 hPa | 1.52 mm | 0 m/s | 141 W/m² | - |
| 1778008504 | 3.89° C | 94% | 1014.4 hPa | 1.52 mm | 0.45 m/s, 75° | 132 W/m² | - |
| 1778008215 | 3.89° C | 94% | 1014.4 hPa | 1.52 mm | 0 m/s | 113 W/m² | - |
| 1778007904 | 3.89° C | 94% | 1014.5 hPa | 1.27 mm | 0.45 m/s, 24° | 116 W/m² | - |
| 1778007615 | 3.89° C | 94% | 1014.5 hPa | 1.27 mm | 0.89 m/s, 24° | 100 W/m² | - |
| 1778007315 | 3.89° C | 94% | 1014.6 hPa | 1.02 mm | 0.89 m/s, 116° | 107 W/m² | - |
| 1778007004 | 3.89° C | 94% | 1014.7 hPa | 1.02 mm | 0.45 m/s, 137° | 107 W/m² | - |
| 1778006715 | 3.89° C | 94% | 1014.7 hPa | 1.02 mm | 0 m/s | 111 W/m² | - |
| 1778006404 | 3.89° C | 94% | 1014.7 hPa | 1.02 mm | 0.45 m/s, 347° | 98 W/m² | - |
| 1778006114 | 3.89° C | 94% | 1014.8 hPa | 0.76 mm | 0.89 m/s, 6° | 97 W/m² | - |
| 1778005804 | 3.89° C | 94% | 1014.8 hPa | 0.76 mm | 1.34 m/s, 359° | 120 W/m² | - |
| 1778005515 | 3.89° C | 94% | 1014.8 hPa | 0.76 mm | 1.34 m/s, 20° | 88 W/m² | - |
| 1778005204 | 3.89° C | 94% | 1014.9 hPa | 0.76 mm | 0.89 m/s, 349° | 72 W/m² | - |
| 1778004904 | 3.89° C | 94% | 1014.9 hPa | 1.02 mm | 0.89 m/s, 354° | 137 W/m² | - |
* Rain latest hour (hover to see other rain measurements)
** Current wind speed in m/s (hover to see current wind gust speed)